Time;durP1;ratioP1;P1;durP2;ratioP2;P2;SDS_P1;SDS_P2;PMS_P1;PMS_P2;Temp;Humidity;BMP_temperature;BMP_pressure;BME280_temperature;BME280_humidity;BME280_pressure;Samples;Min_cycle;Max_cycle;Signal;HPM_P1;HPM_P2
2022/08/12 00:43:35;;;;;;;5.70;4.85;;;22.10;46.90;;;;;;5084442;28;20055;-50
2022/08/12 00:48:49;;;;;;;4.70;4.22;;;22.00;47.30;;;;;;5082158;28;20051;-49
2022/08/12 00:51:16;;;;;;;5.68;5.18;;;22.00;47.30;;;;;;5081337;28;20089;-53
2022/08/12 00:53:46;;;;;;;4.57;4.13;;;21.90;47.30;;;;;;5096586;28;20586;-52
2022/08/12 00:56:15;;;;;;;5.20;4.75;;;21.90;47.30;;;;;;5091529;28;20051;-54
2022/08/12 00:58:46;;;;;;;5.05;4.55;;;21.90;47.40;;;;;;5080983;28;20101;-48
2022/08/12 01:01:16;;;;;;;9.27;5.20;;;21.80;47.80;;;;;;5093955;28;20047;-50
2022/08/12 01:12:11;;;;;;;4.55;4.10;;;21.70;47.70;;;;;;5096695;28;20047;-50
2022/08/12 01:14:44;;;;;;;5.30;4.90;;;21.60;47.60;;;;;;5092273;28;20512;-52
2022/08/12 01:17:12;;;;;;;4.82;4.43;;;21.60;47.90;;;;;;5082087;28;20413;-51
2022/08/12 01:19:39;;;;;;;5.07;4.60;;;21.50;47.80;;;;;;5089969;28;20390;-50
2022/08/12 01:22:24;;;;;;;5.00;4.60;;;21.50;48.00;;;;;;5091905;28;20051;-52
2022/08/12 01:25:11;;;;;;;4.57;4.18;;;21.50;48.60;;;;;;5090082;28;20048;-51
2022/08/12 01:27:39;;;;;;;6.40;4.55;;;21.50;48.60;;;;;;5082287;28;20039;-48
2022/08/12 01:30:09;;;;;;;5.70;4.40;;;21.40;48.20;;;;;;5093219;28;20040;-48
2022/08/12 01:32:42;;;;;;;4.38;4.07;;;21.40;48.50;;;;;;5092672;28;20454;-48
2022/08/12 01:35:12;;;;;;;5.00;4.47;;;21.40;48.60;;;;;;5066705;28;20401;-53
2022/08/12 01:37:50;;;;;;;4.80;4.38;;;21.30;48.60;;;;;;5081820;28;20040;-52
2022/08/12 01:40:22;;;;;;;4.40;4.10;;;21.30;49.20;;;;;;5079408;28;20054;-48
2022/08/12 01:43:09;;;;;;;5.80;4.57;;;21.20;48.60;;;;;;5088556;28;20044;-49
2022/08/12 01:46:00;;;;;;;8.07;4.88;;;21.30;49.20;;;;;;5092066;28;20075;-52
2022/08/12 01:48:44;;;;;;;4.63;4.30;;;21.30;49.40;;;;;;5075720;28;20048;-49
2022/08/12 01:51:39;;;;;;;4.82;4.40;;;21.20;49.40;;;;;;5083927;28;21380;-50
2022/08/12 01:54:27;;;;;;;4.45;4.13;;;21.10;49.40;;;;;;5072967;28;20493;-53
2022/08/12 01:57:04;;;;;;;4.50;4.10;;;21.10;48.70;;;;;;5081230;28;20064;-51
2022/08/12 01:59:55;;;;;;;5.20;4.70;;;21.00;49.20;;;;;;5091446;28;20065;-52
2022/08/12 02:02:39;;;;;;;5.40;4.90;;;21.00;49.30;;;;;;5084895;28;20093;-52
2022/08/12 02:11:47;;;;;;;4.80;4.40;;;20.90;49.80;;;;;;5066314;28;20039;-51
2022/08/12 02:14:41;;;;;;;5.20;4.70;;;20.90;49.50;;;;;;5068235;28;20048;-52
2022/08/12 02:17:39;;;;;;;5.60;5.10;;;20.80;49.80;;;;;;5089650;28;20484;-53
2022/08/12 02:20:37;;;;;;;5.82;5.10;;;20.80;50.20;;;;;;5071555;28;20127;-51
2022/08/12 02:23:29;;;;;;;5.38;4.88;;;20.70;49.20;;;;;;5077891;28;20052;-49
2022/08/12 02:26:19;;;;;;;5.18;4.70;;;20.70;49.50;;;;;;5077102;28;20036;-53
2022/08/12 02:28:47;;;;;;;5.55;5.15;;;20.70;50.00;;;;;;5087614;28;20036;-49
2022/08/12 02:31:14;;;;;;;5.22;4.82;;;20.60;49.50;;;;;;5084808;28;20040;-51
2022/08/12 02:33:47;;;;;;;5.68;5.18;;;20.60;49.60;;;;;;5071710;28;20055;-48
2022/08/12 02:36:15;;;;;;;;;;;20.60;49.70;;;;;;5089840;28;20048;-48
2022/08/12 02:38:47;;;;;;;6.00;5.38;;;20.60;48.80;;;;;;5091828;28;19920;-48
2022/08/12 02:41:18;;;;;;;5.78;5.18;;;20.60;49.30;;;;;;5091633;28;20044;-48
2022/08/12 02:43:52;;;;;;;9.25;4.93;;;20.50;49.50;;;;;;5081272;28;20072;-51
2022/08/12 02:46:26;;;;;;;5.85;5.30;;;20.40;50.00;;;;;;5087334;28;20401;-50
2022/08/12 02:49:13;;;;;;;6.55;5.95;;;20.40;50.30;;;;;;5091740;28;20507;-49
2022/08/12 02:51:44;;;;;;;5.15;4.65;;;20.40;50.80;;;;;;5071523;28;20086;-51
2022/08/12 02:54:11;;;;;;;6.80;5.50;;;20.40;50.40;;;;;;5090223;28;20040;-53
2022/08/12 02:56:42;;;;;;;5.97;5.47;;;20.30;50.10;;;;;;5091402;28;20047;-52
2022/08/12 02:59:20;;;;;;;5.57;4.95;;;20.20;49.80;;;;;;5087124;28;20044;-49
2022/08/12 03:02:02;;;;;;;6.63;5.00;;;20.20;50.50;;;;;;5071027;28;20048;-47
2022/08/12 03:04:46;;;;;;;5.63;5.13;;;20.20;51.10;;;;;;5077403;28;20048;-52
2022/08/12 03:07:26;;;;;;;5.97;5.40;;;20.20;51.00;;;;;;5061019;28;20090;-48
2022/08/12 03:10:13;;;;;;;5.90;5.40;;;20.20;51.00;;;;;;5064836;28;20588;-50
2022/08/12 03:12:59;;;;;;;5.57;5.07;;;20.10;50.40;;;;;;5086089;28;20134;-50
2022/08/12 03:15:26;;;;;;;5.93;5.40;;;20.10;51.30;;;;;;5049488;28;20041;-48
2022/08/12 03:18:19;;;;;;;5.20;4.70;;;20.10;50.70;;;;;;5053375;28;20555;-49
2022/08/12 03:21:01;;;;;;;5.63;4.90;;;20.00;51.40;;;;;;5079896;28;20416;-54
2022/08/12 03:23:31;;;;;;;5.30;4.90;;;20.00;50.70;;;;;;5091250;28;20036;-48
2022/08/12 03:26:00;;;;;;;6.07;5.55;;;20.00;51.00;;;;;;5090593;28;20040;-51
2022/08/12 03:28:52;;;;;;;;;;;20.00;51.10;;;;;;5076758;28;20089;-50
2022/08/12 03:31:28;;;;;;;5.72;5.22;;;19.90;50.10;;;;;;5074145;28;19920;-53
2022/08/12 03:34:09;;;;;;;5.65;5.13;;;19.90;50.60;;;;;;5073929;28;20052;-52
2022/08/12 03:36:40;;;;;;;7.28;5.35;;;19.90;51.30;;;;;;5075585;28;20044;-49
2022/08/12 03:42:08;;;;;;;5.43;4.90;;;19.80;51.20;;;;;;5091119;28;20040;-48
2022/08/12 04:01:56;;;;;;;9.55;5.68;;;19.60;51.60;;;;;;5066148;28;20040;-51
2022/08/12 04:04:28;;;;;;;6.38;5.82;;;19.50;51.50;;;;;;5063936;28;20044;-49
2022/08/12 04:06:56;;;;;;;7.03;5.40;;;19.50;52.00;;;;;;5067145;28;20119;-49
2022/08/12 04:09:23;;;;;;;7.10;5.32;;;19.40;51.60;;;;;;5068207;28;20052;-50
2022/08/12 04:14:39;;;;;;;6.15;5.30;;;19.40;51.90;;;;;;5070255;28;20115;-54
2022/08/12 04:17:10;;;;;;;6.07;5.53;;;19.40;52.00;;;;;;5069553;28;20052;-51
2022/08/12 04:19:37;;;;;;;5.63;5.13;;;19.40;52.00;;;;;;5060471;28;20082;-52
2022/08/12 04:22:08;;;;;;;6.68;5.57;;;19.40;52.20;;;;;;5059151;28;20544;-49
2022/08/12 04:24:39;;;;;;;6.32;5.72;;;19.30;52.50;;;;;;5063169;28;20056;-50
2022/08/12 04:27:15;;;;;;;5.70;5.15;;;19.30;52.50;;;;;;5068406;28;20543;-48
2022/08/12 04:29:41;;;;;;;6.05;5.45;;;19.30;52.30;;;;;;5070965;28;20040;-50
2022/08/12 04:32:31;;;;;;;5.70;5.15;;;19.30;52.50;;;;;;5060265;28;20048;-50
2022/08/12 04:34:57;;;;;;;5.07;4.68;;;19.30;52.50;;;;;;5062569;28;20048;-53
2022/08/12 04:37:24;;;;;;;6.55;5.00;;;19.30;52.70;;;;;;5069538;28;20457;-50
2022/08/12 04:39:52;;;;;;;5.88;5.00;;;19.30;52.80;;;;;;5072564;28;20061;-50
2022/08/12 04:42:24;;;;;;;5.97;5.15;;;19.30;53.00;;;;;;5067947;28;20048;-54
2022/08/12 04:44:51;;;;;;;5.80;5.32;;;19.30;53.00;;;;;;5082650;28;20040;-48
2022/08/12 04:47:20;;;;;;;6.53;5.78;;;19.20;52.90;;;;;;5090010;28;20427;-50
2022/08/12 04:49:49;;;;;;;6.40;5.85;;;19.30;53.30;;;;;;5076869;28;20102;-53
2022/08/12 04:52:16;;;;;;;7.18;5.93;;;19.20;53.30;;;;;;5079587;28;20085;-49
2022/08/12 04:54:45;;;;;;;5.47;5.07;;;19.20;53.40;;;;;;5084304;28;20044;-50
2022/08/12 04:57:11;;;;;;;5.45;5.05;;;19.30;53.70;;;;;;5075476;28;20437;-49
2022/08/12 04:59:40;;;;;;;6.78;6.10;;;19.30;53.70;;;;;;5073896;28;20048;-51
2022/08/12 05:02:18;;;;;;;6.10;5.53;;;19.30;53.80;;;;;;5076458;28;20056;-53
2022/08/12 05:04:50;;;;;;;5.63;5.13;;;19.30;54.20;;;;;;5087440;28;20062;-53
2022/08/12 05:07:17;;;;;;;6.05;5.55;;;19.20;54.00;;;;;;5080599;28;20153;-49
2022/08/12 05:09:44;;;;;;;5.50;5.07;;;19.30;54.10;;;;;;5066412;28;20056;-50
2022/08/12 05:12:41;;;;;;;6.15;5.65;;;19.30;54.20;;;;;;5074921;28;20040;-50
2022/08/12 05:15:09;;;;;;;6.83;5.97;;;19.40;55.10;;;;;;5088057;28;20032;-50
2022/08/12 05:17:54;;;;;;;5.80;5.32;;;19.40;54.30;;;;;;5073629;28;20049;-50
2022/08/12 05:20:24;;;;;;;6.18;5.65;;;19.40;54.40;;;;;;5070045;28;20051;-49
2022/08/12 05:23:08;;;;;;;6.45;5.95;;;19.40;54.60;;;;;;5071572;28;20768;-49
2022/08/12 05:25:43;;;;;;;10.35;6.10;;;19.50;55.60;;;;;;5076837;28;20063;-51
2022/08/12 05:28:13;;;;;;;6.70;6.15;;;19.50;54.90;;;;;;5090806;28;20729;-48
2022/08/12 05:30:41;;;;;;;6.45;5.95;;;19.50;55.00;;;;;;5072890;28;20110;-51
2022/08/12 05:33:09;;;;;;;6.80;6.13;;;19.50;55.10;;;;;;5080814;28;20508;-51
2022/08/12 05:35:41;;;;;;;6.25;5.65;;;19.60;55.30;;;;;;5090282;28;20044;-49
2022/08/12 05:41:03;;;;;;;6.57;6.00;;;19.70;55.80;;;;;;5071962;28;20513;-52
2022/08/12 05:43:32;;;;;;;8.88;6.45;;;19.70;55.80;;;;;;5087985;28;20716;-49
2022/08/12 05:46:01;;;;;;;7.47;5.97;;;19.70;56.20;;;;;;5071271;28;20757;-52
2022/08/12 05:48:29;;;;;;;7.47;6.60;;;19.80;56.10;;;;;;5075064;28;20561;-49
2022/08/12 05:50:56;;;;;;;6.15;5.55;;;19.90;56.30;;;;;;5066020;28;20048;-53
2022/08/12 05:53:23;;;;;;;6.82;6.20;;;19.90;56.40;;;;;;5066982;28;20036;-49
2022/08/12 05:55:52;;;;;;;6.95;6.25;;;20.00;56.50;;;;;;5063704;28;20475;-49
2022/08/12 05:58:20;;;;;;;6.90;6.22;;;20.00;57.30;;;;;;5071016;28;20040;-49
2022/08/12 06:00:46;;;;;;;6.63;5.97;;;20.10;56.60;;;;;;5088732;28;20048;-50
2022/08/12 06:03:16;;;;;;;6.93;6.30;;;20.10;56.80;;;;;;5082337;28;20072;-50
2022/08/12 06:05:45;;;;;;;6.88;6.28;;;20.20;56.90;;;;;;5080811;28;20076;-50
2022/08/12 06:08:22;;;;;;;6.50;5.80;;;20.30;56.90;;;;;;5067874;28;20090;-50
2022/08/12 06:10:49;;;;;;;6.90;6.10;;;20.30;56.90;;;;;;5069923;28;20083;-51
2022/08/12 06:13:17;;;;;;;6.40;5.80;;;20.40;56.90;;;;;;5073855;28;20085;-51
2022/08/12 06:16:08;;;;;;;6.38;5.65;;;20.40;57.10;;;;;;5077874;28;20048;-53
2022/08/12 06:18:38;;;;;;;6.38;5.70;;;20.50;57.50;;;;;;5078283;28;20133;-53
2022/08/12 06:21:10;;;;;;;6.75;6.15;;;20.60;57.20;;;;;;5091270;28;20040;-53
2022/08/12 06:23:44;;;;;;;6.32;5.47;;;20.60;57.60;;;;;;5091522;28;20563;-53
2022/08/12 06:26:14;;;;;;;7.15;5.82;;;20.70;57.30;;;;;;5072898;28;20060;-48
2022/08/12 06:28:44;;;;;;;6.30;5.70;;;20.80;57.40;;;;;;5065901;28;20032;-50
2022/08/12 06:31:15;;;;;;;6.85;5.57;;;20.90;57.80;;;;;;5064636;28;20047;-51
2022/08/12 06:33:55;;;;;;;6.53;5.93;;;20.90;57.60;;;;;;5067425;28;20033;-53
2022/08/12 06:36:44;;;;;;;6.20;5.63;;;21.00;57.60;;;;;;5066589;28;20541;-49
2022/08/12 06:39:13;;;;;;;6.60;5.90;;;21.00;57.50;;;;;;5076664;28;20041;-52
2022/08/12 06:44:49;;;;;;;6.32;5.00;;;21.10;57.70;;;;;;5069831;28;20087;-53
2022/08/12 06:47:18;;;;;;;7.50;5.53;;;21.20;57.50;;;;;;5089796;28;20036;-53
2022/08/12 06:49:45;;;;;;;5.80;5.10;;;21.30;58.50;;;;;;5077414;28;20056;-53
2022/08/12 06:52:11;;;;;;;5.97;5.38;;;21.40;57.70;;;;;;5072182;28;20048;-52
2022/08/12 06:54:41;;;;;;;5.85;4.95;;;21.50;57.70;;;;;;5056500;28;20653;-53
2022/08/12 06:57:18;;;;;;;6.03;5.35;;;21.50;57.10;;;;;;5080011;28;20086;-52
2022/08/12 07:00:10;;;;;;;5.93;4.70;;;21.60;56.90;;;;;;5081067;28;20120;-53
2022/08/12 07:02:36;;;;;;;5.00;4.50;;;21.70;55.80;;;;;;5065825;28;20047;-53
2022/08/12 07:05:06;;;;;;;5.78;4.82;;;21.80;55.40;;;;;;5073441;28;20279;-52
2022/08/12 07:07:37;;;;;;;5.00;4.60;;;21.90;55.70;;;;;;5090621;28;20048;-52
2022/08/12 07:10:04;;;;;;;6.50;4.70;;;22.00;54.40;;;;;;5073667;28;20387;-53
2022/08/12 07:12:34;;;;;;;6.32;4.10;;;22.10;54.20;;;;;;5078851;28;20517;-53
2022/08/12 07:15:01;;;;;;;4.38;3.97;;;22.20;54.10;;;;;;5083330;28;20032;-53
2022/08/12 07:17:34;;;;;;;7.75;4.68;;;22.30;53.20;;;;;;5068132;28;20043;-53
2022/08/12 07:20:01;;;;;;;4.15;3.75;;;22.40;52.70;;;;;;5061451;28;20028;-53
2022/08/12 07:22:31;;;;;;;6.30;4.55;;;22.50;52.00;;;;;;5069441;28;20055;-52
2022/08/12 07:27:45;;;;;;;7.60;4.30;;;22.70;51.20;;;;;;5090020;28;20515;-53
2022/08/12 07:30:13;;;;;;;4.78;4.07;;;22.90;50.70;;;;;;5078592;28;20045;-53
2022/08/12 07:32:39;;;;;;;7.47;4.25;;;23.00;50.30;;;;;;5070205;28;20390;-53
2022/08/12 07:35:07;;;;;;;4.63;4.22;;;23.10;49.30;;;;;;5074872;28;20039;-53
2022/08/12 07:37:40;;;;;;;4.72;3.65;;;23.20;48.90;;;;;;5063284;28;20091;-52
2022/08/12 07:40:10;;;;;;;7.50;4.03;;;23.40;48.60;;;;;;5064437;28;20726;-53
2022/08/12 07:42:39;;;;;;;5.38;3.20;;;23.50;48.10;;;;;;5062673;28;20045;-53
2022/08/12 07:45:08;;;;;;;4.43;3.33;;;23.60;47.40;;;;;;5065134;28;20040;-52
2022/08/12 07:47:36;;;;;;;3.83;2.97;;;23.70;47.00;;;;;;5062449;28;20105;-53
2022/08/12 07:50:08;;;;;;;5.10;3.30;;;23.80;46.20;;;;;;5062455;28;20053;-52
2022/08/12 07:52:37;;;;;;;5.97;3.53;;;23.90;45.90;;;;;;5077597;28;20124;-51
2022/08/12 07:55:05;;;;;;;6.63;3.15;;;24.10;45.70;;;;;;5089145;28;20516;-53
2022/08/12 07:57:32;;;;;;;3.53;3.22;;;24.20;45.20;;;;;;5084951;28;20089;-50
2022/08/12 08:00:04;;;;;;;3.20;2.92;;;24.30;44.60;;;;;;5071863;28;20040;-53
2022/08/12 08:02:35;;;;;;;3.20;2.97;;;24.40;44.30;;;;;;5083018;28;20070;-52
2022/08/12 08:05:03;;;;;;;3.13;2.83;;;24.60;44.20;;;;;;5059095;28;20044;-53
2022/08/12 08:07:30;;;;;;;7.88;3.22;;;24.60;44.00;;;;;;5065607;28;20044;-53
2022/08/12 08:10:00;;;;;;;4.25;2.90;;;24.70;43.90;;;;;;5066329;28;20577;-53
2022/08/12 08:15:14;;;;;;;5.90;3.40;;;24.90;42.90;;;;;;5071569;28;20492;-50
2022/08/12 08:18:02;;;;;;;4.95;2.80;;;25.00;42.90;;;;;;5077829;28;20044;-51
2022/08/12 08:20:33;;;;;;;5.82;2.92;;;25.10;42.90;;;;;;5059071;28;20037;-52
2022/08/12 08:23:04;;;;;;;5.38;3.20;;;25.20;42.90;;;;;;5071500;28;20045;-52
2022/08/12 08:25:32;;;;;;;4.15;2.80;;;25.30;42.70;;;;;;5087286;28;20052;-53
2022/08/12 08:28:15;;;;;;;3.20;2.80;;;25.30;42.40;;;;;;5079592;28;20055;-54
2022/08/12 08:30:44;;;;;;;4.72;3.03;;;25.40;42.20;;;;;;5080354;28;20119;-54
2022/08/12 08:33:12;;;;;;;4.60;2.83;;;25.50;42.00;;;;;;5078740;28;20040;-53
2022/08/12 08:35:52;;;;;;;3.78;2.90;;;25.60;42.10;;;;;;5089776;28;20043;-53
2022/08/12 08:38:21;;;;;;;4.97;2.85;;;25.70;41.70;;;;;;5067303;28;20044;-53
2022/08/12 08:44:06;;;;;;;5.85;3.33;;;25.90;41.80;;;;;;5069826;28;20079;-52
2022/08/12 08:46:36;;;;;;;7.28;2.90;;;26.00;41.10;;;;;;5071688;28;20044;-53
2022/08/12 08:49:04;;;;;;;2.83;2.63;;;26.10;41.00;;;;;;5075976;28;20723;-53
2022/08/12 08:51:31;;;;;;;5.10;2.97;;;26.10;40.90;;;;;;5091268;28;20040;-52
2022/08/12 08:53:58;;;;;;;6.07;2.67;;;26.10;40.60;;;;;;5090240;28;20036;-53
2022/08/12 08:56:26;;;;;;;3.65;2.50;;;26.20;40.50;;;;;;5071332;28;20041;-52
2022/08/12 08:58:52;;;;;;;5.78;3.60;;;26.30;40.50;;;;;;5081953;28;20040;-54
2022/08/12 09:01:20;;;;;;;3.88;2.88;;;26.40;40.00;;;;;;5093374;28;20125;-53
2022/08/12 09:03:48;;;;;;;3.13;2.92;;;26.50;40.10;;;;;;5085452;28;20484;-53
2022/08/12 09:06:35;;;;;;;7.88;2.40;;;26.50;40.00;;;;;;5074611;28;20119;-48
2022/08/12 09:09:11;;;;;;;3.60;2.40;;;26.60;39.80;;;;;;5090852;28;20141;-53
2022/08/12 09:14:42;;;;;;;6.07;2.20;;;26.70;39.20;;;;;;5078095;28;20412;-53
2022/08/12 09:17:31;;;;;;;2.67;2.33;;;26.80;38.80;;;;;;5078958;28;20089;-54
2022/08/12 09:20:13;;;;;;;4.20;2.38;;;26.90;39.10;;;;;;5091907;28;20044;-53
2022/08/12 09:22:41;;;;;;;4.35;2.33;;;27.00;38.40;;;;;;5074193;28;20451;-53
2022/08/12 09:25:16;;;;;;;2.92;2.20;;;27.10;38.00;;;;;;5067349;28;20089;-53
2022/08/12 09:27:55;;;;;;;2.60;1.90;;;27.20;38.10;;;;;;5087098;28;20044;-51
2022/08/12 09:30:49;;;;;;;5.13;2.70;;;27.20;37.10;;;;;;5055091;28;20082;-53
2022/08/12 09:33:16;;;;;;;4.55;2.60;;;27.40;37.10;;;;;;5060400;28;20043;-53
2022/08/12 09:36:03;;;;;;;4.35;2.75;;;27.40;37.10;;;;;;5065865;28;20115;-50
2022/08/12 09:38:32;;;;;;;5.97;2.70;;;27.50;36.70;;;;;;5064009;28;20036;-54
2022/08/12 09:41:01;;;;;;;6.70;2.45;;;27.60;36.90;;;;;;5068215;28;20032;-53
2022/08/12 09:46:54;;;;;;;3.78;3.03;;;27.80;36.70;;;;;;5064760;28;20539;-52
2022/08/12 09:49:23;;;;;;;3.17;2.70;;;27.90;36.70;;;;;;5062430;28;20051;-52
2022/08/12 09:51:53;;;;;;;4.38;3.15;;;27.90;36.20;;;;;;5064895;28;20512;-53
2022/08/12 09:54:24;;;;;;;3.25;2.85;;;28.00;36.00;;;;;;5059341;28;20047;-52
2022/08/12 09:57:06;;;;;;;5.47;2.67;;;28.00;36.20;;;;;;5065619;28;20847;-53
2022/08/12 09:59:58;;;;;;;5.13;2.67;;;28.10;35.30;;;;;;5078079;28;20044;-53
2022/08/12 10:03:04;;;;;;;4.38;2.70;;;28.20;35.20;;;;;;5078002;28;20040;-53
2022/08/12 10:05:35;;;;;;;5.13;3.25;;;28.40;35.20;;;;;;5075880;28;20058;-53
2022/08/12 10:08:26;;;;;;;7.43;3.10;;;28.40;35.10;;;;;;5072897;28;20101;-53
2022/08/12 10:13:51;;;;;;;3.10;2.83;;;28.60;34.80;;;;;;5077792;28;20079;-54
2022/08/12 10:16:23;;;;;;;2.15;2.03;;;28.60;34.20;;;;;;5070373;28;20040;-49
2022/08/12 10:19:00;;;;;;;3.35;2.05;;;28.70;34.70;;;;;;5065405;28;20678;-54
2022/08/12 10:21:37;;;;;;;3.72;2.95;;;28.80;34.20;;;;;;5070352;28;20097;-49
2022/08/12 10:24:15;;;;;;;2.55;2.35;;;28.80;33.30;;;;;;5087937;28;20550;-53
2022/08/12 10:29:35;;;;;;;4.43;2.30;;;29.00;33.40;;;;;;5059838;28;20568;-53
2022/08/12 10:32:22;;;;;;;4.25;2.35;;;29.10;33.40;;;;;;5080300;28;20112;-53
2022/08/12 10:35:09;;;;;;;4.10;2.20;;;29.20;33.20;;;;;;5088464;28;20090;-49
2022/08/12 10:37:37;;;;;;;6.25;2.58;;;29.40;33.30;;;;;;5068692;28;20041;-54
2022/08/12 10:40:24;;;;;;;3.70;2.30;;;29.20;32.80;;;;;;5079574;28;20041;-53
2022/08/12 10:45:45;;;;;;;3.35;2.10;;;29.50;33.00;;;;;;5089225;28;20044;-53
2022/08/12 10:48:12;;;;;;;2.78;2.45;;;29.50;32.60;;;;;;5073149;28;20049;-52
2022/08/12 10:50:54;;;;;;;2.40;2.20;;;29.60;32.50;;;;;;5070702;28;20048;-54
2022/08/12 10:53:31;;;;;;;2.58;2.00;;;29.60;32.20;;;;;;5077008;28;20048;-53
2022/08/12 10:56:16;;;;;;;3.10;2.17;;;29.70;32.10;;;;;;5059689;28;20032;-54
2022/08/12 10:58:44;;;;;;;2.60;2.30;;;29.80;32.30;;;;;;5067124;28;20735;-54
2022/08/12 11:01:15;;;;;;;3.45;1.95;;;29.90;32.40;;;;;;5070368;28;20727;-53
2022/08/12 11:04:04;;;;;;;2.28;1.83;;;30.00;32.40;;;;;;5060006;28;20071;-53
2022/08/12 11:06:52;;;;;;;2.33;2.13;;;30.10;32.60;;;;;;5068837;28;20041;-53
2022/08/12 11:09:40;;;;;;;2.60;2.08;;;30.10;31.90;;;;;;5069232;28;20071;-54
2022/08/12 11:12:28;;;;;;;2.67;1.92;;;30.20;32.00;;;;;;5076413;28;20040;-54
2022/08/12 11:15:15;;;;;;;2.72;2.10;;;30.20;31.70;;;;;;5069003;28;20123;-51
2022/08/12 11:17:59;;;;;;;3.15;1.98;;;30.40;31.50;;;;;;5073758;28;20040;-53
2022/08/12 11:20:28;;;;;;;1.90;1.80;;;30.40;31.30;;;;;;5080943;28;20413;-52
2022/08/12 11:22:58;;;;;;;1.70;1.60;;;30.50;31.20;;;;;;5061283;28;20059;-53
2022/08/12 11:25:30;;;;;;;1.95;1.85;;;30.50;30.90;;;;;;5066104;28;20709;-53
2022/08/12 11:28:17;;;;;;;2.63;2.00;;;30.60;31.00;;;;;;5065120;28;20470;-53
2022/08/12 11:31:00;;;;;;;2.17;1.73;;;30.70;31.10;;;;;;5065362;28;20071;-52
2022/08/12 11:33:27;;;;;;;2.28;2.08;;;30.70;30.80;;;;;;5068482;28;20118;-54
2022/08/12 11:36:15;;;;;;;1.73;1.65;;;30.80;30.70;;;;;;5068720;28;20125;-53
2022/08/12 11:38:42;;;;;;;3.65;1.98;;;30.90;31.10;;;;;;5068133;28;20090;-54
2022/08/12 11:41:17;;;;;;;8.57;2.13;;;31.00;30.80;;;;;;5086639;28;20040;-53
2022/08/12 11:44:01;;;;;;;5.35;2.15;;;31.00;30.40;;;;;;5067922;28;20032;-53
2022/08/12 11:46:50;;;;;;;2.28;2.08;;;31.10;29.90;;;;;;5070960;28;20101;-52
2022/08/12 11:49:23;;;;;;;2.03;1.92;;;31.20;30.00;;;;;;5087219;28;20123;-54
2022/08/12 11:52:02;;;;;;;3.03;1.77;;;31.20;30.10;;;;;;5070350;28;20044;-54
2022/08/12 11:54:30;;;;;;;4.40;2.08;;;31.30;30.00;;;;;;5066055;28;20055;-52
2022/08/12 11:57:01;;;;;;;1.40;1.30;;;31.40;29.80;;;;;;5075803;28;20037;-54
2022/08/12 11:59:48;;;;;;;2.45;1.92;;;31.50;29.70;;;;;;5067385;28;20171;-53
2022/08/12 12:02:37;;;;;;;1.73;1.63;;;31.50;29.60;;;;;;5066891;28;20427;-54
2022/08/12 12:05:04;;;;;;;3.90;1.90;;;31.60;29.50;;;;;;5082462;28;20048;-54
2022/08/12 12:07:32;;;;;;;2.00;1.90;;;31.70;29.10;;;;;;5075330;28;20049;-54
2022/08/12 12:10:19;;;;;;;3.03;2.45;;;31.70;29.10;;;;;;5065492;28;20121;-51
2022/08/12 12:12:46;;;;;;;3.20;1.65;;;31.80;29.30;;;;;;5063518;28;20045;-54
2022/08/12 12:15:17;;;;;;;4.10;2.08;;;31.80;29.30;;;;;;5081206;28;20127;-54
2022/08/12 12:17:52;;;;;;;2.85;2.33;;;31.80;29.10;;;;;;5068568;28;20115;-53
2022/08/12 12:20:22;;;;;;;2.55;1.88;;;31.80;29.20;;;;;;5069657;28;20063;-52
2022/08/12 12:22:56;;;;;;;3.45;1.55;;;31.90;29.20;;;;;;5065220;28;20047;-53
2022/08/12 12:25:22;;;;;;;3.25;2.08;;;32.00;28.90;;;;;;5077511;28;20527;-54
2022/08/12 12:28:10;;;;;;;2.63;1.60;;;32.10;28.90;;;;;;5078738;28;20079;-52
2022/08/12 12:30:56;;;;;;;1.92;1.80;;;32.20;29.10;;;;;;5067124;28;20459;-54
2022/08/12 12:33:25;;;;;;;1.90;1.80;;;32.30;29.00;;;;;;5080091;28;20415;-53
2022/08/12 12:36:12;;;;;;;2.20;2.00;;;32.40;28.90;;;;;;5085874;28;20040;-49
2022/08/12 12:38:48;;;;;;;3.58;1.95;;;32.40;28.90;;;;;;5062518;28;20041;-51
2022/08/12 12:41:15;;;;;;;2.15;1.83;;;32.50;28.70;;;;;;5063994;28;20105;-54
2022/08/12 12:43:43;;;;;;;4.68;2.10;;;32.60;28.70;;;;;;5071960;28;20123;-54
2022/08/12 12:46:29;;;;;;;1.83;1.73;;;32.70;28.00;;;;;;5058549;28;20044;-53
2022/08/12 12:48:56;;;;;;;3.70;1.70;;;32.80;28.00;;;;;;5061465;28;20049;-52
2022/08/12 12:51:23;;;;;;;4.15;1.75;;;32.90;28.00;;;;;;5063261;28;20579;-50
2022/08/12 12:54:10;;;;;;;2.10;1.80;;;33.00;28.00;;;;;;5067168;28;20068;-53
2022/08/12 12:56:41;;;;;;;3.90;2.00;;;33.10;27.60;;;;;;5061149;28;20048;-52
2022/08/12 12:59:09;;;;;;;2.25;2.05;;;33.10;27.50;;;;;;5059166;28;20036;-54
2022/08/12 13:02:00;;;;;;;1.80;1.70;;;33.20;27.30;;;;;;5065573;28;20068;-52
2022/08/12 13:04:33;;;;;;;3.05;1.73;;;33.30;27.40;;;;;;5063005;28;20072;-52
2022/08/12 13:07:03;;;;;;;2.13;1.70;;;33.40;27.70;;;;;;5063941;28;20553;-52
2022/08/12 13:09:32;;;;;;;5.65;2.25;;;33.50;26.90;;;;;;5063077;28;20041;-54
2022/08/12 13:12:07;;;;;;;1.80;1.70;;;33.60;26.80;;;;;;5070873;28;20075;-53
2022/08/12 13:14:36;;;;;;;3.33;2.00;;;33.70;26.60;;;;;;5106202;28;20479;-54
2022/08/12 13:17:08;;;;;;;3.30;1.60;;;33.70;26.20;;;;;;5070570;28;20075;-54
2022/08/12 13:19:35;;;;;;;1.80;1.65;;;33.80;26.30;;;;;;5073834;28;20090;-54
2022/08/12 13:22:17;;;;;;;2.67;1.77;;;33.90;26.30;;;;;;5082036;28;20532;-54
2022/08/12 13:24:51;;;;;;;3.53;1.60;;;34.00;26.30;;;;;;5069257;28;20490;-54
2022/08/12 13:27:34;;;;;;;4.32;1.70;;;34.10;26.20;;;;;;5072473;28;20416;-54
2022/08/12 13:30:06;;;;;;;3.15;1.58;;;34.30;26.20;;;;;;5086243;28;20123;-54
2022/08/12 13:32:49;;;;;;;2.50;1.92;;;34.40;26.70;;;;;;5081903;28;20743;-53
2022/08/12 13:35:25;;;;;;;2.08;1.77;;;34.60;26.50;;;;;;5087344;28;20129;-54
2022/08/12 13:38:12;;;;;;;2.88;1.60;;;34.70;26.10;;;;;;5073473;28;20124;-53
2022/08/12 13:40:39;;;;;;;1.67;1.58;;;35.10;26.50;;;;;;5073803;28;20093;-54
2022/08/12 13:43:06;;;;;;;2.00;1.60;;;35.60;26.40;;;;;;5070352;28;20045;-54
2022/08/12 13:45:34;;;;;;;2.15;1.52;;;36.40;26.40;;;;;;5068872;28;20040;-54
2022/08/12 13:48:04;;;;;;;2.70;1.38;;;37.50;26.30;;;;;;5082994;28;20044;-54
2022/08/12 13:50:37;;;;;;;2.47;1.33;;;38.60;25.70;;;;;;5077902;28;20048;-54
2022/08/12 13:53:12;;;;;;;1.48;1.27;;;40.00;25.40;;;;;;5063426;28;20094;-53
2022/08/12 13:55:52;;;;;;;1.85;1.33;;;41.40;24.50;;;;;;5057076;28;20068;-54
2022/08/12 13:58:26;;;;;;;2.03;1.33;;;42.90;24.50;;;;;;5068762;28;20101;-52
2022/08/12 14:01:04;;;;;;;2.83;1.40;;;44.20;23.80;;;;;;5068228;28;20043;-52
2022/08/12 14:03:32;;;;;;;1.50;1.40;;;45.40;23.00;;;;;;5069387;28;20041;-52
2022/08/12 14:06:17;;;;;;;1.65;1.13;;;46.50;22.60;;;;;;5065453;28;20055;-52
2022/08/12 14:08:44;;;;;;;2.03;1.35;;;47.70;22.10;;;;;;5070712;28;20712;-52
2022/08/12 14:11:16;;;;;;;3.65;1.20;;;48.60;21.30;;;;;;5066670;28;20051;-50
2022/08/12 14:13:44;;;;;;;1.30;1.20;;;49.30;20.60;;;;;;5060365;28;20048;-54
2022/08/12 14:16:32;;;;;;;1.85;0.90;;;49.90;20.40;;;;;;5065773;28;20040;-51
2022/08/12 14:19:15;;;;;;;2.03;0.90;;;50.50;20.30;;;;;;5066240;28;20587;-53
2022/08/12 14:21:49;;;;;;;1.10;1.10;;;51.10;20.20;;;;;;5065313;28;20029;-52
2022/08/12 14:24:33;;;;;;;1.25;1.20;;;51.60;20.10;;;;;;5065853;28;20048;-53
2022/08/12 14:27:00;;;;;;;1.90;1.55;;;52.10;19.80;;;;;;5060940;28;20124;-53
2022/08/12 14:29:29;;;;;;;2.45;0.93;;;52.60;19.60;;;;;;5061775;28;20041;-52
2022/08/12 14:32:16;;;;;;;1.95;1.10;;;53.00;19.20;;;;;;5066429;28;20466;-53
2022/08/12 14:34:45;;;;;;;1.35;1.05;;;53.50;19.00;;;;;;5065138;28;20481;-53
2022/08/12 14:37:12;;;;;;;1.38;1.25;;;53.80;18.60;;;;;;5063419;28;20078;-52
2022/08/12 14:39:59;;;;;;;0.93;0.93;;;54.20;18.60;;;;;;5066702;28;20036;-52
2022/08/12 14:42:27;;;;;;;1.65;1.52;;;54.50;18.40;;;;;;5065875;28;20138;-51
2022/08/12 14:44:56;;;;;;;1.38;1.27;;;54.70;18.30;;;;;;5064085;28;20037;-52
2022/08/12 14:47:28;;;;;;;1.50;0.90;;;55.00;18.20;;;;;;5064398;28;20044;-52
2022/08/12 14:50:02;;;;;;;1.13;1.00;;;55.10;18.10;;;;;;5062575;28;20079;-53
2022/08/12 14:52:50;;;;;;;1.45;1.00;;;55.40;18.20;;;;;;5063025;28;20144;-52
2022/08/12 14:55:56;;;;;;;1.35;1.27;;;55.60;18.00;;;;;;5064019;28;20163;-52
2022/08/12 15:01:48;;;;;;;0.90;0.90;;;55.90;18.10;;;;;;5044224;28;20465;-53
2022/08/12 15:04:27;;;;;;;2.05;1.13;;;56.30;18.00;;;;;;5047940;28;20048;-53
2022/08/12 15:06:54;;;;;;;2.17;1.35;;;56.40;17.80;;;;;;5045453;28;20041;-53
2022/08/12 15:09:21;;;;;;;3.10;1.38;;;56.60;17.80;;;;;;5038773;28;20068;-56
2022/08/12 15:11:56;;;;;;;1.52;1.27;;;56.90;17.60;;;;;;5037305;28;20052;-53
2022/08/12 15:14:33;;;;;;;1.20;1.10;;;57.00;17.60;;;;;;5039947;28;20044;-52
2022/08/12 15:17:05;;;;;;;1.27;1.08;;;57.10;17.50;;;;;;5037219;28;20037;-53
2022/08/12 15:19:32;;;;;;;1.00;1.00;;;57.20;17.40;;;;;;5035257;28;20037;-53
2022/08/12 15:22:19;;;;;;;1.75;1.00;;;57.30;17.50;;;;;;5035162;28;20468;-53